Time;durP1;ratioP1;P1;durP2;ratioP2;P2;SDS_P1;SDS_P2;PMS_P1;PMS_P2;Temp;Humidity;BMP_temperature;BMP_pressure;BME280_temperature;BME280_humidity;BME280_pressure;Samples;Min_cycle;Max_cycle;Signal;HPM_P1;HPM_P2
2023/05/12 00:00:32;;;;;;;7.57;2.78;;;9.30;99.90;;;;;;4881236;29;20135;-79
2023/05/12 00:03:01;;;;;;;7.85;3.22;;;9.30;99.90;;;;;;4895166;29;20079;-80
2023/05/12 00:05:28;;;;;;;7.38;3.13;;;9.30;99.90;;;;;;4895257;29;20056;-80
2023/05/12 00:07:55;;;;;;;7.72;2.92;;;9.30;99.90;;;;;;4895368;29;20053;-80
2023/05/12 00:10:22;;;;;;;8.88;3.08;;;9.10;99.90;;;;;;4894654;29;20069;-80
2023/05/12 00:12:48;;;;;;;6.85;2.70;;;9.20;99.90;;;;;;4895811;29;20080;-79
2023/05/12 00:15:15;;;;;;;9.27;3.10;;;9.10;99.90;;;;;;4894848;29;20101;-79
2023/05/12 00:17:43;;;;;;;6.82;2.83;;;9.10;99.90;;;;;;4881246;29;20045;-79
2023/05/12 00:20:10;;;;;;;11.88;3.17;;;9.10;99.90;;;;;;4881227;29;20041;-79
2023/05/12 00:22:40;;;;;;;10.30;2.85;;;9.10;99.90;;;;;;4894930;29;20068;-79
2023/05/12 00:25:07;;;;;;;9.45;2.95;;;9.10;99.90;;;;;;4895516;29;20491;-79
2023/05/12 00:30:37;;;;;;;8.20;3.00;;;9.00;99.90;;;;;;4894794;29;20049;-80
2023/05/12 00:33:03;;;;;;;9.63;3.55;;;9.00;99.90;;;;;;4880958;29;20044;-80
2023/05/12 00:35:31;;;;;;;8.30;3.30;;;9.00;99.90;;;;;;4880347;29;20132;-80
2023/05/12 00:37:58;;;;;;;11.32;3.08;;;8.90;99.90;;;;;;4880090;29;20044;-80
2023/05/12 00:40:24;;;;;;;7.97;3.42;;;8.90;99.90;;;;;;4880929;29;20476;-79
2023/05/12 00:42:51;;;;;;;11.35;3.15;;;8.80;99.90;;;;;;4878850;29;20045;-80
2023/05/12 00:45:18;;;;;;;9.07;3.30;;;8.80;99.90;;;;;;4879678;29;20049;-80
2023/05/12 00:47:47;;;;;;;7.63;3.20;;;8.90;99.90;;;;;;4879953;29;20049;-79
2023/05/12 00:50:14;;;;;;;7.85;3.00;;;8.90;99.90;;;;;;4878268;29;20060;-80
2023/05/12 00:52:40;;;;;;;7.82;3.30;;;8.80;99.90;;;;;;4861821;29;20500;-80
2023/05/12 00:55:07;;;;;;;8.95;3.50;;;8.80;99.90;;;;;;4875762;29;20053;-79
2023/05/12 00:57:35;;;;;;;8.45;3.10;;;8.80;99.90;;;;;;4862364;29;20041;-80
2023/05/12 01:00:03;;;;;;;6.55;2.63;;;8.80;99.90;;;;;;4862329;29;20042;-80
2023/05/12 01:02:31;;;;;;;6.85;2.78;;;8.80;99.90;;;;;;4875802;29;20058;-80
2023/05/12 01:04:57;;;;;;;9.20;3.60;;;8.80;99.90;;;;;;4876506;29;20132;-79
2023/05/12 01:10:10;;;;;;;7.35;3.13;;;8.70;99.90;;;;;;4875896;29;20473;-79
2023/05/12 01:12:37;;;;;;;9.25;3.63;;;8.70;99.90;;;;;;4876592;29;20106;-79
2023/05/12 01:15:03;;;;;;;8.02;3.22;;;8.70;99.90;;;;;;4861039;29;20457;-79
2023/05/12 01:17:32;;;;;;;8.27;3.30;;;8.70;99.90;;;;;;4862286;29;20076;-79
2023/05/12 01:19:59;;;;;;;9.13;3.63;;;8.60;99.90;;;;;;4861153;29;20050;-80
2023/05/12 01:22:25;;;;;;;8.00;3.10;;;8.60;99.90;;;;;;4861150;29;20037;-80
2023/05/12 01:24:52;;;;;;;9.82;3.42;;;8.60;99.90;;;;;;4876304;29;20064;-80
2023/05/12 01:30:05;;;;;;;10.05;4.32;;;8.60;99.90;;;;;;4861394;29;20477;-80
2023/05/12 01:32:33;;;;;;;11.43;4.22;;;8.60;99.90;;;;;;4860942;29;20436;-80
2023/05/12 01:35:01;;;;;;;17.98;6.95;;;8.70;99.90;;;;;;4861055;29;20049;-79
2023/05/12 01:40:02;;;;;;;24.20;8.20;;;9.00;99.90;;;;;;4876466;29;20056;-80
2023/05/12 01:42:29;;;;;;;23.30;9.35;;;9.20;99.90;;;;;;4875638;29;20049;-80
2023/05/12 01:44:57;;;;;;;28.67;10.40;;;9.40;99.90;;;;;;4860732;29;20101;-79
2023/05/12 01:50:13;;;;;;;27.35;9.35;;;9.70;99.90;;;;;;4875619;29;20140;-79
2023/05/12 01:52:39;;;;;;;27.48;9.55;;;9.90;99.90;;;;;;4860692;29;20045;-80
2023/05/12 01:55:11;;;;;;;34.65;11.60;;;10.00;99.90;;;;;;4878666;29;20053;-79
2023/05/12 01:57:53;;;;;;;38.88;13.13;;;10.10;99.90;;;;;;4879680;29;20370;-80
2023/05/12 02:00:20;;;;;;;29.27;11.23;;;10.20;99.90;;;;;;4879389;29;20047;-80
2023/05/12 02:02:50;;;;;;;29.40;11.68;;;10.30;99.90;;;;;;4863198;29;20068;-80
2023/05/12 02:05:17;;;;;;;30.15;11.70;;;10.40;99.90;;;;;;4879245;29;20060;-80
2023/05/12 02:10:34;;;;;;;33.28;11.82;;;10.50;99.90;;;;;;4863049;29;20068;-80
2023/05/12 02:13:01;;;;;;;26.50;10.52;;;10.60;99.90;;;;;;4863740;29;20080;-80
2023/05/12 02:15:30;;;;;;;32.88;11.80;;;10.60;99.90;;;;;;4878295;29;20061;-80
2023/05/12 02:17:57;;;;;;;29.92;11.27;;;10.60;99.90;;;;;;4879333;29;20049;-79
2023/05/12 02:20:28;;;;;;;37.25;13.40;;;10.70;99.90;;;;;;4879134;29;20082;-79
2023/05/12 02:22:55;;;;;;;36.22;13.30;;;10.70;99.90;;;;;;4863735;29;20037;-79
2023/05/12 02:25:21;;;;;;;38.10;13.75;;;10.70;99.90;;;;;;4878909;29;20041;-80
2023/05/12 02:30:35;;;;;;;38.63;13.70;;;10.70;99.90;;;;;;4862799;29;20057;-80
2023/05/12 02:33:04;;;;;;;35.53;12.10;;;10.80;99.90;;;;;;4878956;29;20049;-80
2023/05/12 02:35:30;;;;;;;29.90;10.90;;;10.80;99.90;;;;;;4862621;29;20128;-80
2023/05/12 02:37:57;;;;;;;37.55;12.57;;;10.80;99.90;;;;;;4878916;29;20147;-79
2023/05/12 02:40:24;;;;;;;32.97;12.43;;;10.80;99.90;;;;;;4863355;29;20808;-79
2023/05/12 02:42:51;;;;;;;33.08;11.95;;;10.80;99.90;;;;;;4882629;29;20048;-79
2023/05/12 02:45:18;;;;;;;32.88;11.93;;;10.90;99.90;;;;;;4915872;29;20048;-79
2023/05/12 02:47:46;;;;;;;32.30;12.52;;;10.80;99.90;;;;;;4884835;29;20424;-80
2023/05/12 02:50:13;;;;;;;33.83;12.02;;;10.80;99.90;;;;;;4915924;29;20120;-80
2023/05/12 02:52:39;;;;;;;33.72;12.45;;;10.80;99.90;;;;;;4867389;29;20041;-79
2023/05/12 02:55:07;;;;;;;30.33;12.52;;;10.80;99.90;;;;;;4880882;29;20052;-79
2023/05/12 02:57:33;;;;;;;31.20;12.45;;;10.80;99.90;;;;;;4881618;29;20392;-79
2023/05/12 03:00:00;;;;;;;34.33;13.10;;;10.80;99.90;;;;;;4881571;29;20049;-79
2023/05/12 03:02:27;;;;;;;31.20;12.25;;;10.70;99.90;;;;;;4896323;29;20053;-80
2023/05/12 03:04:54;;;;;;;33.97;11.80;;;10.70;99.90;;;;;;4881333;29;20432;-80
2023/05/12 03:07:22;;;;;;;28.33;11.93;;;10.70;99.90;;;;;;4897072;29;20045;-80
2023/05/12 03:09:49;;;;;;;36.78;12.90;;;10.70;99.90;;;;;;4881955;29;20116;-79
2023/05/12 03:12:16;;;;;;;33.85;13.27;;;10.80;99.90;;;;;;4882584;29;20464;-79
2023/05/12 03:14:43;;;;;;;29.67;11.80;;;10.80;99.90;;;;;;4896721;29;20056;-80
2023/05/12 03:17:10;;;;;;;29.75;12.02;;;10.70;99.90;;;;;;4896462;29;20429;-80
2023/05/12 03:19:37;;;;;;;29.17;11.38;;;10.70;99.90;;;;;;4881649;29;20116;-79
2023/05/12 03:22:06;;;;;;;26.42;10.95;;;10.70;99.90;;;;;;4896378;29;20051;-81
2023/05/12 03:24:33;;;;;;;26.02;11.02;;;10.70;99.90;;;;;;4897022;29;20051;-79
2023/05/12 03:27:00;;;;;;;26.67;10.77;;;10.70;99.90;;;;;;4897294;29;20457;-81
2023/05/12 03:29:27;;;;;;;24.30;10.05;;;10.70;99.90;;;;;;4880911;29;20476;-82
2023/05/12 03:31:53;;;;;;;23.25;10.27;;;10.70;99.90;;;;;;4882776;29;20041;-81
2023/05/12 03:34:20;;;;;;;22.60;9.65;;;10.70;99.90;;;;;;4896660;29;20059;-81
2023/05/12 03:39:34;;;;;;;24.42;10.45;;;10.60;99.90;;;;;;4881147;29;20063;-78
2023/05/12 03:42:01;;;;;;;23.77;9.95;;;10.60;99.90;;;;;;4880293;29;20048;-82
2023/05/12 03:44:28;;;;;;;25.50;10.35;;;10.60;99.90;;;;;;4896370;29;20481;-79
2023/05/12 03:50:00;;;;;;;22.92;9.05;;;10.60;99.90;;;;;;4895531;29;20239;-80
2023/05/12 03:52:28;;;;;;;21.60;8.93;;;10.60;99.90;;;;;;4864827;29;20053;-80
2023/05/12 03:54:54;;;;;;;21.30;9.50;;;10.70;99.90;;;;;;4877312;29;20397;-80
2023/05/12 03:57:21;;;;;;;19.98;8.32;;;10.70;99.90;;;;;;4861166;29;20057;-80
2023/05/12 03:59:48;;;;;;;25.88;8.48;;;10.70;99.90;;;;;;4877796;29;20092;-79
2023/05/12 04:02:14;;;;;;;23.00;8.30;;;10.70;99.90;;;;;;4876438;29;20381;-80
2023/05/12 04:04:41;;;;;;;24.45;8.57;;;10.70;99.90;;;;;;4862651;29;20053;-80
2023/05/12 04:07:08;;;;;;;29.23;8.88;;;10.70;99.90;;;;;;4877317;29;20062;-80
2023/05/12 04:09:34;;;;;;;22.60;8.48;;;10.60;99.90;;;;;;4876539;29;20156;-80
2023/05/12 04:12:02;;;;;;;26.25;8.18;;;10.70;99.90;;;;;;4877199;29;20140;-80
2023/05/12 04:14:29;;;;;;;21.77;8.20;;;10.60;99.90;;;;;;4862439;29;20041;-80
2023/05/12 04:17:10;;;;;;;24.75;8.57;;;10.60;99.90;;;;;;4860451;29;20162;-80
2023/05/12 04:19:37;;;;;;;30.27;8.93;;;10.70;99.90;;;;;;4877722;29;20057;-80
2023/05/12 04:22:03;;;;;;;26.02;7.70;;;10.70;99.90;;;;;;4860826;29;20060;-80
2023/05/12 04:24:30;;;;;;;26.98;8.48;;;10.70;99.90;;;;;;4876908;29;20046;-80
2023/05/12 04:26:58;;;;;;;24.60;8.90;;;10.70;99.90;;;;;;4877108;29;20517;-80
2023/05/12 04:29:24;;;;;;;27.38;8.10;;;10.70;99.90;;;;;;4860815;29;20049;-79
2023/05/12 04:31:51;;;;;;;24.13;8.48;;;10.70;99.90;;;;;;4876936;29;20385;-80
2023/05/12 04:34:18;;;;;;;19.33;6.88;;;10.70;99.90;;;;;;4861308;29;20046;-80
2023/05/12 04:36:47;;;;;;;22.42;7.82;;;10.60;99.90;;;;;;4860778;29;20045;-80
2023/05/12 04:39:13;;;;;;;20.77;7.32;;;10.60;99.90;;;;;;4862664;29;20480;-80
2023/05/12 04:41:40;;;;;;;21.98;7.45;;;10.60;99.90;;;;;;4876029;29;20041;-80
2023/05/12 04:44:07;;;;;;;18.73;6.85;;;10.60;99.90;;;;;;4876733;29;20057;-80
2023/05/12 04:49:19;;;;;;;18.58;6.75;;;10.60;99.90;;;;;;4860881;29;20065;-80
2023/05/12 04:51:46;;;;;;;18.83;5.75;;;10.60;99.90;;;;;;4887383;29;20421;-80
2023/05/12 04:54:13;;;;;;;18.55;6.38;;;10.60;99.90;;;;;;4879672;29;20120;-80
2023/05/12 04:56:42;;;;;;;16.27;6.47;;;10.60;99.90;;;;;;4879021;29;20041;-80
2023/05/12 04:59:10;;;;;;;19.13;6.65;;;10.60;99.90;;;;;;4879937;29;20369;-80
2023/05/12 05:01:38;;;;;;;21.85;7.03;;;10.70;99.90;;;;;;4879520;29;20060;-80
2023/05/12 05:04:04;;;;;;;16.45;6.38;;;10.70;99.90;;;;;;4879423;29;20067;-80
2023/05/12 05:06:33;;;;;;;16.90;5.57;;;10.70;99.90;;;;;;4895274;29;20045;-80
2023/05/12 05:09:00;;;;;;;16.48;6.53;;;10.60;99.90;;;;;;4879004;29;20076;-80
2023/05/12 05:11:28;;;;;;;14.38;6.22;;;10.70;99.90;;;;;;4895279;29;20140;-80
2023/05/12 05:13:55;;;;;;;14.25;6.25;;;10.70;99.90;;;;;;4895050;29;20120;-80
2023/05/12 05:16:23;;;;;;;13.77;5.65;;;10.70;99.90;;;;;;4878837;29;20045;-80
2023/05/12 05:18:50;;;;;;;14.50;4.32;;;10.60;99.90;;;;;;4895032;29;20049;-81
2023/05/12 05:21:17;;;;;;;13.90;5.40;;;10.60;99.90;;;;;;4880583;29;20056;-80
2023/05/12 05:23:44;;;;;;;15.73;6.20;;;10.60;99.90;;;;;;4893797;29;20064;-80
2023/05/12 05:29:14;;;;;;;14.77;5.55;;;10.60;99.90;;;;;;4896656;29;20029;-80
2023/05/12 05:31:41;;;;;;;14.50;5.47;;;10.70;99.90;;;;;;4898696;29;20051;-80
2023/05/12 05:34:08;;;;;;;17.77;6.05;;;10.70;99.90;;;;;;4882795;29;20053;-81
2023/05/12 05:36:37;;;;;;;14.65;5.25;;;10.80;99.90;;;;;;4897806;29;20120;-80
2023/05/12 05:39:03;;;;;;;14.77;6.47;;;10.80;99.90;;;;;;4898652;29;20081;-80
2023/05/12 05:41:30;;;;;;;18.67;6.38;;;10.80;99.90;;;;;;4882992;29;20041;-81
2023/05/12 05:43:57;;;;;;;16.42;6.15;;;10.80;99.90;;;;;;4897642;29;20392;-80
2023/05/12 05:46:26;;;;;;;21.90;6.47;;;10.90;99.90;;;;;;4882875;29;20480;-80
2023/05/12 05:48:53;;;;;;;15.43;6.30;;;10.90;99.90;;;;;;4882060;29;20049;-80
2023/05/12 05:51:21;;;;;;;20.02;6.85;;;11.00;99.90;;;;;;4883113;29;20100;-80
2023/05/12 05:53:47;;;;;;;15.55;5.68;;;11.00;99.90;;;;;;4882462;29;20091;-80
2023/05/12 05:59:03;;;;;;;18.17;6.05;;;11.10;99.90;;;;;;4898318;29;20449;-80
2023/05/12 06:01:29;;;;;;;17.88;6.78;;;11.10;99.90;;;;;;4882370;29;20149;-80
2023/05/12 06:03:56;;;;;;;20.55;6.80;;;11.10;99.90;;;;;;4881588;29;20148;-81
2023/05/12 06:06:25;;;;;;;18.95;6.93;;;11.20;99.90;;;;;;4882521;29;20045;-80
2023/05/12 06:08:54;;;;;;;17.83;6.57;;;11.30;99.90;;;;;;4882977;29;20128;-80
2023/05/12 06:11:21;;;;;;;15.07;6.60;;;11.50;99.90;;;;;;4882416;29;20049;-80
2023/05/12 06:13:48;;;;;;;18.17;6.82;;;11.50;99.90;;;;;;4882109;29;20143;-80
2023/05/12 06:16:16;;;;;;;20.13;7.22;;;11.60;99.90;;;;;;4882484;29;20350;-80
2023/05/12 06:18:43;;;;;;;19.08;6.85;;;11.80;99.90;;;;;;4882374;29;20045;-80
2023/05/12 06:21:11;;;;;;;20.42;7.28;;;11.80;99.90;;;;;;4898256;29;20334;-80
2023/05/12 06:23:37;;;;;;;16.10;6.90;;;11.80;99.90;;;;;;4882595;29;20052;-80
2023/05/12 06:29:06;;;;;;;13.60;6.72;;;11.90;99.90;;;;;;4892283;29;20052;-81
2023/05/12 06:31:48;;;;;;;;;;;12.00;99.90;;;;;;4898403;29;20060;-81
2023/05/12 06:34:15;;;;;;;20.15;6.97;;;12.00;99.90;;;;;;4881763;29;20376;-80
2023/05/12 06:36:43;;;;;;;19.50;6.70;;;12.20;99.90;;;;;;4896804;29;20045;-80
2023/05/12 06:39:09;;;;;;;17.15;6.45;;;12.10;99.90;;;;;;4897401;29;20052;-80
2023/05/12 06:41:36;;;;;;;17.52;6.65;;;12.20;99.90;;;;;;4882861;29;20045;-81
2023/05/12 06:44:05;;;;;;;15.98;6.80;;;12.20;99.90;;;;;;4880998;29;20041;-81
2023/05/12 06:46:33;;;;;;;16.45;5.90;;;12.20;99.90;;;;;;4882789;29;20045;-81
2023/05/12 06:48:59;;;;;;;14.00;6.32;;;12.30;99.90;;;;;;4881044;29;20056;-81
2023/05/12 06:51:26;;;;;;;13.23;5.32;;;12.50;99.90;;;;;;4874831;29;20042;-81
2023/05/12 06:53:53;;;;;;;13.07;5.97;;;12.60;99.90;;;;;;4878354;29;20571;-80
2023/05/12 06:59:05;;;;;;;13.23;5.45;;;12.60;99.90;;;;;;4878566;29;20054;-80
2023/05/12 07:01:31;;;;;;;16.17;5.25;;;12.70;99.90;;;;;;4878242;29;20463;-81
2023/05/12 07:03:58;;;;;;;12.90;5.60;;;12.70;99.90;;;;;;4862811;29;20053;-80
2023/05/12 07:08:57;;;;;;;16.42;5.05;;;12.60;99.90;;;;;;4877532;29;20057;-81
2023/05/12 07:11:24;;;;;;;10.57;4.82;;;12.70;99.90;;;;;;4863853;29;20088;-81
2023/05/12 07:13:50;;;;;;;13.32;4.63;;;12.90;99.90;;;;;;4878298;29;20052;-81
2023/05/12 07:16:17;;;;;;;12.60;5.05;;;12.90;99.90;;;;;;4862706;29;20426;-81
2023/05/12 07:18:44;;;;;;;11.57;4.70;;;12.90;99.90;;;;;;4863702;29;20041;-81
2023/05/12 07:21:11;;;;;;;12.05;5.07;;;13.10;99.90;;;;;;4878080;29;20065;-82
2023/05/12 07:23:37;;;;;;;11.90;4.70;;;13.30;99.90;;;;;;4877106;29;20058;-81
2023/05/12 07:28:51;;;;;;;11.27;4.20;;;13.60;99.90;;;;;;4862680;29;20384;-81
2023/05/12 07:31:18;;;;;;;10.40;4.05;;;13.40;99.90;;;;;;4863513;29;20381;-81
2023/05/12 07:33:45;;;;;;;9.98;4.20;;;13.30;99.90;;;;;;4878183;29;20049;-85
2023/05/12 07:38:58;;;;;;;11.00;4.05;;;13.60;99.90;;;;;;4863605;29;20144;-83
2023/05/12 07:41:25;;;;;;;11.93;4.00;;;13.80;99.90;;;;;;4863149;29;20480;-81
2023/05/12 07:43:51;;;;;;;15.52;4.50;;;14.10;99.90;;;;;;4862299;29;20069;-81
2023/05/12 07:46:20;;;;;;;8.95;3.58;;;14.30;99.90;;;;;;4877763;29;20378;-80
2023/05/12 07:48:47;;;;;;;9.48;3.78;;;14.40;99.90;;;;;;4868721;29;20033;-81
2023/05/12 07:51:13;;;;;;;9.38;3.13;;;14.50;99.90;;;;;;4880927;29;20342;-81
2023/05/12 07:53:40;;;;;;;10.15;3.35;;;14.40;99.90;;;;;;4880272;29;20048;-81
2023/05/12 07:56:07;;;;;;;10.32;2.97;;;14.30;99.90;;;;;;4880534;29;20036;-80
2023/05/12 07:58:34;;;;;;;7.50;3.03;;;14.30;99.90;;;;;;4880094;29;20049;-81
2023/05/12 08:01:04;;;;;;;10.85;3.17;;;14.20;99.90;;;;;;4880189;29;20353;-81
2023/05/12 08:03:31;;;;;;;9.05;2.90;;;14.10;99.90;;;;;;4880594;29;20049;-80
2023/05/12 08:05:59;;;;;;;8.27;2.65;;;14.00;99.90;;;;;;4881370;29;20045;-81
2023/05/12 08:08:26;;;;;;;6.50;2.15;;;13.90;99.90;;;;;;4880330;29;20049;-80
2023/05/12 08:10:52;;;;;;;10.35;2.70;;;13.90;99.90;;;;;;4895988;29;20107;-80
2023/05/12 08:13:19;;;;;;;7.57;2.17;;;14.00;99.90;;;;;;4895869;29;20109;-80
2023/05/12 08:15:47;;;;;;;9.50;2.67;;;13.90;99.90;;;;;;4879432;29;20108;-80
2023/05/12 08:18:13;;;;;;;6.90;2.40;;;14.20;99.90;;;;;;4881315;29;20063;-80
2023/05/12 08:20:40;;;;;;;11.45;2.85;;;14.50;99.90;;;;;;4881052;29;20502;-79
2023/05/12 08:23:07;;;;;;;6.85;2.55;;;14.70;99.90;;;;;;4880149;29;20468;-83
2023/05/12 08:25:35;;;;;;;7.57;2.40;;;15.10;99.90;;;;;;4860543;29;20053;-83
2023/05/12 08:28:02;;;;;;;6.32;2.20;;;15.30;99.90;;;;;;4875792;29;20044;-83
2023/05/12 08:30:29;;;;;;;8.15;2.47;;;15.50;99.90;;;;;;4868816;29;20520;-82
2023/05/12 08:32:55;;;;;;;7.47;2.40;;;15.30;99.90;;;;;;4862100;29;20038;-81
2023/05/12 08:35:22;;;;;;;5.57;2.13;;;15.10;99.90;;;;;;4894098;29;20121;-82
2023/05/12 08:37:50;;;;;;;6.63;2.22;;;14.90;99.90;;;;;;4880138;29;20045;-80
2023/05/12 08:40:17;;;;;;;6.90;2.33;;;14.90;99.90;;;;;;4895479;29;20051;-81
2023/05/12 08:42:43;;;;;;;7.32;2.20;;;14.70;99.90;;;;;;4883276;29;20434;-83
2023/05/12 08:45:10;;;;;;;7.30;1.98;;;14.90;99.90;;;;;;4874898;29;20631;-80
2023/05/12 08:47:36;;;;;;;7.07;2.08;;;14.90;99.90;;;;;;4892835;29;20084;-81
2023/05/12 08:50:03;;;;;;;4.40;1.83;;;15.00;99.90;;;;;;4879792;29;20421;-84
2023/05/12 08:52:30;;;;;;;6.00;2.05;;;15.00;99.90;;;;;;4863951;29;20049;-85
2023/05/12 08:54:57;;;;;;;8.00;2.20;;;15.00;99.90;;;;;;4864308;29;20041;-83
2023/05/12 08:57:27;;;;;;;9.00;2.38;;;15.20;99.90;;;;;;4864324;29;20049;-81
2023/05/12 08:59:55;;;;;;;8.25;2.13;;;15.40;99.90;;;;;;4863632;29;20057;-84
2023/05/12 09:02:22;;;;;;;7.63;2.28;;;15.50;99.90;;;;;;4880756;29;20053;-82
2023/05/12 09:04:50;;;;;;;9.30;2.30;;;15.50;99.90;;;;;;4883466;29;20060;-82
2023/05/12 09:07:17;;;;;;;6.57;2.17;;;15.50;99.90;;;;;;4884076;29;20045;-88
2023/05/12 09:09:44;;;;;;;9.15;2.40;;;15.40;99.90;;;;;;4867124;29;20103;-85
2023/05/12 09:12:11;;;;;;;7.50;2.15;;;15.30;99.90;;;;;;4898293;29;20056;-85
2023/05/12 09:14:38;;;;;;;8.13;2.08;;;15.30;99.90;;;;;;4882819;29;20075;-85
2023/05/12 09:17:06;;;;;;;6.72;1.83;;;15.30;99.90;;;;;;4887883;29;20048;-78
2023/05/12 09:19:33;;;;;;;4.88;2.03;;;15.10;99.90;;;;;;4881623;29;20063;-83
2023/05/12 09:22:00;;;;;;;7.57;1.70;;;14.90;99.90;;;;;;4887045;29;20752;-83
2023/05/12 09:24:27;;;;;;;8.70;2.05;;;14.90;99.90;;;;;;4878618;29;20437;-85
2023/05/12 09:29:41;;;;;;;8.30;1.77;;;15.00;99.90;;;;;;4881209;29;20132;-81
2023/05/12 09:32:24;;;;;;;7.43;1.70;;;15.00;99.90;;;;;;4881916;29;20045;-79
2023/05/12 09:34:50;;;;;;;9.25;1.73;;;15.00;99.90;;;;;;4882715;29;20045;-79
2023/05/12 09:37:19;;;;;;;7.05;1.92;;;14.70;99.90;;;;;;4897281;29;20045;-79
2023/05/12 09:39:46;;;;;;;5.70;1.75;;;14.80;99.90;;;;;;4898265;29;20033;-79
2023/05/12 09:42:13;;;;;;;8.23;1.80;;;14.70;99.90;;;;;;4883028;29;20459;-79
2023/05/12 09:44:40;;;;;;;10.38;1.90;;;14.60;99.90;;;;;;4883518;29;20052;-79
2023/05/12 09:47:09;;;;;;;6.68;1.90;;;14.60;99.90;;;;;;4883099;29;20465;-79
2023/05/12 09:49:36;;;;;;;4.25;1.50;;;14.60;99.90;;;;;;4883247;29;20073;-79
2023/05/12 09:52:03;;;;;;;6.07;1.60;;;14.60;99.90;;;;;;4882378;29;20097;-83
2023/05/12 09:54:29;;;;;;;11.30;1.73;;;14.60;99.90;;;;;;4883221;29;20041;-81
2023/05/12 09:56:56;;;;;;;7.45;1.88;;;14.50;99.90;;;;;;4898264;29;20049;-82
2023/05/12 09:59:25;;;;;;;6.32;2.00;;;14.40;99.90;;;;;;4867192;29;20049;-77
2023/05/12 10:01:52;;;;;;;4.45;1.85;;;14.40;99.90;;;;;;4883930;29;20053;-79
2023/05/12 10:04:19;;;;;;;6.85;2.13;;;14.20;99.90;;;;;;4885050;29;20084;-81
2023/05/12 10:06:46;;;;;;;10.75;2.00;;;14.00;99.90;;;;;;4888695;29;20049;-79
2023/05/12 10:09:13;;;;;;;6.28;1.63;;;13.60;99.90;;;;;;4869744;29;20049;-81
2023/05/12 10:11:40;;;;;;;7.88;2.00;;;13.40;99.90;;;;;;4882933;29;20475;-81
2023/05/12 10:14:08;;;;;;;5.53;1.80;;;13.40;99.90;;;;;;4883811;29;20045;-78
2023/05/12 10:16:37;;;;;;;8.43;1.85;;;13.50;99.90;;;;;;4885536;29;20071;-81
2023/05/12 10:19:03;;;;;;;6.72;1.77;;;13.50;99.90;;;;;;4886530;29;20055;-80
2023/05/12 10:21:30;;;;;;;4.00;1.42;;;13.40;99.90;;;;;;4901429;29;20045;-79
2023/05/12 10:23:57;;;;;;;6.95;1.80;;;13.30;99.90;;;;;;4900640;29;20494;-81
2023/05/12 10:26:26;;;;;;;8.38;1.85;;;13.30;99.90;;;;;;4873305;29;20045;-81
2023/05/12 10:28:53;;;;;;;7.32;2.35;;;13.30;99.90;;;;;;4895568;29;20136;-81
2023/05/12 10:31:21;;;;;;;7.57;2.20;;;13.20;99.90;;;;;;4872704;29;20096;-81
2023/05/12 10:33:48;;;;;;;4.15;1.63;;;13.10;99.90;;;;;;4890987;29;20037;-81
2023/05/12 10:36:17;;;;;;;5.68;1.83;;;12.90;99.90;;;;;;4882733;29;20041;-82
2023/05/12 10:38:43;;;;;;;10.48;2.03;;;12.70;99.90;;;;;;4898259;29;20499;-81
2023/05/12 10:41:11;;;;;;;7.07;2.15;;;12.70;99.90;;;;;;4866589;29;20476;-82
2023/05/12 10:43:37;;;;;;;12.27;1.70;;;12.60;99.90;;;;;;4858213;29;20125;-82
2023/05/12 10:46:06;;;;;;;4.95;1.75;;;12.70;99.90;;;;;;4878090;29;20376;-81
2023/05/12 10:48:33;;;;;;;6.03;1.83;;;12.70;99.90;;;;;;4880463;29;20528;-80
2023/05/12 10:51:00;;;;;;;8.93;1.80;;;12.60;99.90;;;;;;4881413;29;20326;-81
2023/05/12 10:53:26;;;;;;;6.45;1.88;;;12.50;99.90;;;;;;4866537;29;20077;-81
2023/05/12 10:58:58;;;;;;;7.32;2.03;;;12.40;99.90;;;;;;4881817;29;20337;-79
2023/05/12 11:01:24;;;;;;;12.95;1.98;;;12.30;99.90;;;;;;4896420;29;20067;-79
2023/05/12 11:03:52;;;;;;;5.03;1.90;;;12.30;99.90;;;;;;4896133;29;20389;-80
2023/05/12 11:06:20;;;;;;;7.50;1.85;;;12.50;99.90;;;;;;4880821;29;20048;-79
2023/05/12 11:08:48;;;;;;;8.82;1.80;;;12.60;99.90;;;;;;4896313;29;20053;-80
2023/05/12 11:11:16;;;;;;;5.60;1.70;;;12.50;99.90;;;;;;4881111;29;20541;-82
2023/05/12 11:13:44;;;;;;;5.32;1.50;;;12.50;99.90;;;;;;4881849;29;20076;-79
2023/05/12 11:16:12;;;;;;;6.93;1.90;;;12.30;99.90;;;;;;4896603;29;20116;-79
2023/05/12 11:18:39;;;;;;;5.10;1.40;;;12.30;99.90;;;;;;4882222;29;20128;-81
2023/05/12 11:21:05;;;;;;;4.43;1.30;;;12.20;99.90;;;;;;4881769;29;20041;-81
2023/05/12 11:23:32;;;;;;;4.70;1.85;;;12.20;99.90;;;;;;4895885;29;20051;-79
2023/05/12 11:28:44;;;;;;;7.43;1.90;;;12.00;99.90;;;;;;4895895;29;20144;-80
2023/05/12 11:31:11;;;;;;;5.28;1.65;;;12.10;99.90;;;;;;4865142;29;20349;-81
2023/05/12 11:33:37;;;;;;;6.18;1.52;;;12.10;99.90;;;;;;4896231;29;20220;-80
2023/05/12 11:36:05;;;;;;;2.97;1.30;;;12.00;99.90;;;;;;4881071;29;20045;-81
2023/05/12 11:38:32;;;;;;;6.35;1.90;;;11.90;99.90;;;;;;4896524;29;20116;-81
2023/05/12 11:40:59;;;;;;;6.82;1.55;;;11.90;99.90;;;;;;4881546;29;20140;-78
2023/05/12 11:43:25;;;;;;;5.78;1.63;;;11.80;99.90;;;;;;4888559;29;20083;-81
2023/05/12 11:48:38;;;;;;;4.63;1.70;;;11.70;99.90;;;;;;4862371;29;20068;-80
2023/05/12 11:51:04;;;;;;;3.65;1.40;;;11.70;99.90;;;;;;4877401;29;20045;-82
2023/05/12 11:53:32;;;;;;;4.43;1.90;;;11.70;99.90;;;;;;4863183;29;20045;-80
2023/05/12 11:56:00;;;;;;;8.48;1.95;;;11.80;99.90;;;;;;4876904;29;20067;-80
2023/05/12 11:58:29;;;;;;;8.68;1.90;;;11.70;99.90;;;;;;4862869;29;20041;-81
2023/05/12 12:00:56;;;;;;;6.65;1.88;;;11.70;99.90;;;;;;4862525;29;20095;-80
2023/05/12 12:03:23;;;;;;;7.68;2.20;;;11.70;99.90;;;;;;4861404;29;20056;-82
2023/05/12 12:08:39;;;;;;;11.38;1.90;;;11.80;99.90;;;;;;4862128;29;20049;-80
2023/05/12 12:11:06;;;;;;;4.22;1.75;;;11.80;99.90;;;;;;4877027;29;20469;-79
2023/05/12 12:13:33;;;;;;;6.07;1.50;;;11.80;99.90;;;;;;4877240;29;20453;-82
2023/05/12 12:16:01;;;;;;;3.45;1.30;;;11.70;99.90;;;;;;4876434;29;20049;-81
2023/05/12 12:18:28;;;;;;;7.03;1.75;;;11.70;99.90;;;;;;4862688;29;20053;-80
2023/05/12 12:20:55;;;;;;;8.05;1.73;;;11.70;99.90;;;;;;4876655;29;20045;-81
2023/05/12 12:23:22;;;;;;;4.30;1.40;;;11.70;99.90;;;;;;4876348;29;20417;-81
2023/05/12 12:28:53;;;;;;;4.47;1.70;;;11.70;99.90;;;;;;4876153;29;20190;-81
2023/05/12 12:31:19;;;;;;;5.18;1.80;;;11.70;99.90;;;;;;4876782;29;20057;-80
2023/05/12 12:33:46;;;;;;;2.95;1.25;;;11.70;99.90;;;;;;4876785;29;20053;-81
2023/05/12 12:39:01;;;;;;;5.80;1.85;;;11.70;99.90;;;;;;4862264;29;20049;-82
2023/05/12 12:41:27;;;;;;;4.60;1.60;;;11.70;99.90;;;;;;4861878;29;20045;-80
2023/05/12 12:43:54;;;;;;;4.35;1.40;;;11.80;99.90;;;;;;4876107;29;20050;-81
2023/05/12 12:46:23;;;;;;;5.07;1.90;;;11.80;99.90;;;;;;4876763;29;20480;-80
2023/05/12 12:48:50;;;;;;;6.20;2.30;;;11.80;99.90;;;;;;4875718;29;20053;-80
2023/05/12 12:51:17;;;;;;;7.32;2.28;;;11.80;99.90;;;;;;4861189;29;20041;-81
2023/05/12 12:53:44;;;;;;;7.72;2.38;;;11.80;99.90;;;;;;4880539;29;20045;-81
2023/05/12 12:56:12;;;;;;;7.30;2.22;;;11.80;99.90;;;;;;4879295;29;20045;-80
2023/05/12 12:58:38;;;;;;;7.05;2.60;;;11.80;99.90;;;;;;4864094;29;20068;-82
2023/05/12 13:01:05;;;;;;;9.30;2.50;;;11.90;99.90;;;;;;4895108;29;20061;-80
2023/05/12 13:03:32;;;;;;;9.40;2.42;;;11.80;99.90;;;;;;4863017;29;20057;-80
2023/05/12 13:06:00;;;;;;;7.65;2.47;;;11.80;99.90;;;;;;4879298;29;20052;-80
2023/05/12 13:08:26;;;;;;;11.05;2.50;;;11.80;99.90;;;;;;4878990;29;20048;-79
2023/05/12 13:10:53;;;;;;;9.65;2.10;;;11.80;99.90;;;;;;4887543;29;20044;-81
2023/05/12 13:13:20;;;;;;;6.70;2.45;;;11.70;99.90;;;;;;4894268;29;20399;-79
2023/05/12 13:15:47;;;;;;;8.07;2.15;;;11.80;99.90;;;;;;4892992;29;20049;-80
2023/05/12 13:18:13;;;;;;;12.70;2.40;;;11.80;99.90;;;;;;4880140;29;20045;-79
2023/05/12 13:20:40;;;;;;;8.88;2.95;;;11.70;99.90;;;;;;4880117;29;20041;-79
2023/05/12 13:23:07;;;;;;;8.48;3.20;;;11.70;99.90;;;;;;4879541;29;20472;-79
2023/05/12 13:25:33;;;;;;;7.25;2.75;;;11.60;99.90;;;;;;4878498;29;20045;-80
2023/05/12 13:28:00;;;;;;;8.77;3.28;;;11.60;99.90;;;;;;4879554;29;20052;-81
2023/05/12 13:30:27;;;;;;;7.80;3.53;;;11.60;99.90;;;;;;4862539;29;20108;-79
2023/05/12 13:32:53;;;;;;;8.48;2.78;;;11.50;99.90;;;;;;4880238;29;20052;-78
2023/05/12 13:35:21;;;;;;;9.98;3.13;;;11.50;99.90;;;;;;4894550;29;20049;-79
2023/05/12 13:40:35;;;;;;;10.48;3.38;;;11.60;99.90;;;;;;4878988;29;20429;-79
2023/05/12 13:43:02;;;;;;;8.73;3.17;;;11.60;99.90;;;;;;4893805;29;20064;-79
2023/05/12 13:45:28;;;;;;;7.85;3.40;;;11.60;99.90;;;;;;4878658;29;20068;-80
2023/05/12 13:47:56;;;;;;;10.35;3.65;;;11.50;99.90;;;;;;4894467;29;20037;-79
2023/05/12 13:50:22;;;;;;;10.40;3.85;;;11.50;99.90;;;;;;4896166;29;20484;-79
2023/05/12 13:52:49;;;;;;;12.57;3.70;;;11.50;99.90;;;;;;4898208;29;20052;-79